sensor_id;sensor_type;location;lat;lon;timestamp;P1;durP1;ratioP1;P2;durP2;ratioP2
12267;SDS011;6196;48.398;11.736;2022-11-11T00:01:07;4.50;;;4.10;;
12267;SDS011;6196;48.398;11.736;2022-11-11T00:03:38;5.60;;;4.70;;
12267;SDS011;6196;48.398;11.736;2022-11-11T00:06:08;5.60;;;5.10;;
12267;SDS011;6196;48.398;11.736;2022-11-11T00:08:40;5.30;;;4.80;;
12267;SDS011;6196;48.398;11.736;2022-11-11T00:11:09;4.77;;;4.37;;
12267;SDS011;6196;48.398;11.736;2022-11-11T00:13:38;5.47;;;4.20;;
12267;SDS011;6196;48.398;11.736;2022-11-11T00:16:11;3.50;;;2.90;;
12267;SDS011;6196;48.398;11.736;2022-11-11T00:18:43;3.23;;;2.57;;
12267;SDS011;6196;48.398;11.736;2022-11-11T00:21:29;3.17;;;2.87;;
12267;SDS011;6196;48.398;11.736;2022-11-11T00:24:26;4.70;;;3.43;;
12267;SDS011;6196;48.398;11.736;2022-11-11T00:27:13;4.57;;;3.47;;
12267;SDS011;6196;48.398;11.736;2022-11-11T00:29:44;5.30;;;4.80;;
12267;SDS011;6196;48.398;11.736;2022-11-11T00:32:12;5.13;;;4.63;;
12267;SDS011;6196;48.398;11.736;2022-11-11T00:34:54;5.10;;;4.47;;
12267;SDS011;6196;48.398;11.736;2022-11-11T00:37:44;5.23;;;4.03;;
12267;SDS011;6196;48.398;11.736;2022-11-11T00:40:14;4.10;;;3.40;;
12267;SDS011;6196;48.398;11.736;2022-11-11T00:42:41;5.10;;;3.90;;
12267;SDS011;6196;48.398;11.736;2022-11-11T00:45:09;3.93;;;3.60;;
12267;SDS011;6196;48.398;11.736;2022-11-11T00:47:36;6.17;;;4.50;;
12267;SDS011;6196;48.398;11.736;2022-11-11T00:50:24;5.80;;;5.10;;
12267;SDS011;6196;48.398;11.736;2022-11-11T00:53:13;8.73;;;6.30;;
12267;SDS011;6196;48.398;11.736;2022-11-11T00:55:52;6.90;;;6.20;;
12267;SDS011;6196;48.398;11.736;2022-11-11T00:58:20;5.73;;;5.13;;
12267;SDS011;6196;48.398;11.736;2022-11-11T01:00:49;7.50;;;5.30;;
12267;SDS011;6196;48.398;11.736;2022-11-11T01:03:19;7.50;;;5.87;;
12267;SDS011;6196;48.398;11.736;2022-11-11T01:05:47;6.67;;;5.97;;
12267;SDS011;6196;48.398;11.736;2022-11-11T01:08:14;8.17;;;7.07;;
12267;SDS011;6196;48.398;11.736;2022-11-11T01:10:41;8.50;;;6.40;;
12267;SDS011;6196;48.398;11.736;2022-11-11T01:16:03;7.13;;;6.07;;
12267;SDS011;6196;48.398;11.736;2022-11-11T01:18:33;5.47;;;4.57;;
12267;SDS011;6196;48.398;11.736;2022-11-11T01:21:01;5.00;;;4.50;;
12267;SDS011;6196;48.398;11.736;2022-11-11T01:23:50;6.40;;;3.90;;
12267;SDS011;6196;48.398;11.736;2022-11-11T01:26:23;3.87;;;3.57;;
12267;SDS011;6196;48.398;11.736;2022-11-11T01:28:56;4.73;;;3.40;;
12267;SDS011;6196;48.398;11.736;2022-11-11T01:31:24;3.80;;;3.50;;
12267;SDS011;6196;48.398;11.736;2022-11-11T01:33:52;3.33;;;3.03;;
12267;SDS011;6196;48.398;11.736;2022-11-11T01:36:23;3.10;;;2.83;;
12267;SDS011;6196;48.398;11.736;2022-11-11T01:38:54;3.13;;;2.83;;
12267;SDS011;6196;48.398;11.736;2022-11-11T01:41:25;3.50;;;3.20;;
12267;SDS011;6196;48.398;11.736;2022-11-11T01:52:18;3.40;;;3.10;;
12267;SDS011;6196;48.398;11.736;2022-11-11T01:54:58;3.97;;;3.57;;
12267;SDS011;6196;48.398;11.736;2022-11-11T02:00:16;4.23;;;3.83;;
12267;SDS011;6196;48.398;11.736;2022-11-11T02:02:49;3.83;;;3.10;;
12267;SDS011;6196;48.398;11.736;2022-11-11T02:05:21;4.10;;;3.50;;
12267;SDS011;6196;48.398;11.736;2022-11-11T02:08:42;4.03;;;3.63;;
12267;SDS011;6196;48.398;11.736;2022-11-11T02:11:08;3.87;;;3.40;;
12267;SDS011;6196;48.398;11.736;2022-11-11T02:14:02;4.90;;;4.40;;
12267;SDS011;6196;48.398;11.736;2022-11-11T02:16:48;5.50;;;4.73;;
12267;SDS011;6196;48.398;11.736;2022-11-11T02:19:17;5.80;;;5.10;;
12267;SDS011;6196;48.398;11.736;2022-11-11T02:22:00;4.83;;;4.43;;
12267;SDS011;6196;48.398;11.736;2022-11-11T02:24:29;4.20;;;3.77;;
12267;SDS011;6196;48.398;11.736;2022-11-11T02:26:57;3.90;;;3.60;;
12267;SDS011;6196;48.398;11.736;2022-11-11T02:29:25;3.53;;;3.23;;
12267;SDS011;6196;48.398;11.736;2022-11-11T02:31:53;3.00;;;2.63;;
12267;SDS011;6196;48.398;11.736;2022-11-11T02:34:26;2.90;;;2.60;;
12267;SDS011;6196;48.398;11.736;2022-11-11T02:36:56;2.97;;;2.73;;
12267;SDS011;6196;48.398;11.736;2022-11-11T02:39:24;3.23;;;2.83;;
12267;SDS011;6196;48.398;11.736;2022-11-11T02:42:12;3.47;;;2.90;;
12267;SDS011;6196;48.398;11.736;2022-11-11T02:44:41;3.77;;;3.07;;
12267;SDS011;6196;48.398;11.736;2022-11-11T02:47:07;3.77;;;3.47;;
12267;SDS011;6196;48.398;11.736;2022-11-11T02:49:34;4.73;;;3.17;;
12267;SDS011;6196;48.398;11.736;2022-11-11T02:52:02;5.03;;;3.00;;
12267;SDS011;6196;48.398;11.736;2022-11-11T02:54:29;3.63;;;3.33;;
12267;SDS011;6196;48.398;11.736;2022-11-11T02:56:56;4.57;;;3.93;;
12267;SDS011;6196;48.398;11.736;2022-11-11T02:59:35;4.97;;;3.97;;
12267;SDS011;6196;48.398;11.736;2022-11-11T03:02:07;3.90;;;3.50;;
12267;SDS011;6196;48.398;11.736;2022-11-11T03:04:34;4.20;;;3.80;;
12267;SDS011;6196;48.398;11.736;2022-11-11T03:07:02;4.73;;;4.00;;
12267;SDS011;6196;48.398;11.736;2022-11-11T03:09:30;4.50;;;3.60;;
12267;SDS011;6196;48.398;11.736;2022-11-11T03:11:57;4.53;;;3.43;;
12267;SDS011;6196;48.398;11.736;2022-11-11T03:14:24;3.47;;;3.17;;
12267;SDS011;6196;48.398;11.736;2022-11-11T03:16:52;4.07;;;3.67;;
12267;SDS011;6196;48.398;11.736;2022-11-11T03:19:37;5.63;;;3.77;;
12267;SDS011;6196;48.398;11.736;2022-11-11T03:22:04;4.40;;;3.77;;
12267;SDS011;6196;48.398;11.736;2022-11-11T03:24:51;4.10;;;3.70;;
12267;SDS011;6196;48.398;11.736;2022-11-11T03:27:36;3.90;;;3.60;;
12267;SDS011;6196;48.398;11.736;2022-11-11T03:30:03;4.67;;;4.10;;
12267;SDS011;6196;48.398;11.736;2022-11-11T03:32:31;3.70;;;3.40;;
12267;SDS011;6196;48.398;11.736;2022-11-11T03:34:57;4.10;;;3.70;;
12267;SDS011;6196;48.398;11.736;2022-11-11T03:37:24;3.30;;;3.00;;
12267;SDS011;6196;48.398;11.736;2022-11-11T03:40:09;4.90;;;3.73;;
12267;SDS011;6196;48.398;11.736;2022-11-11T03:42:37;3.33;;;3.03;;
12267;SDS011;6196;48.398;11.736;2022-11-11T03:45:04;3.97;;;3.57;;
12267;SDS011;6196;48.398;11.736;2022-11-11T03:47:31;8.17;;;4.97;;
12267;SDS011;6196;48.398;11.736;2022-11-11T03:49:57;9.77;;;5.87;;
12267;SDS011;6196;48.398;11.736;2022-11-11T03:52:24;10.00;;;5.87;;
12267;SDS011;6196;48.398;11.736;2022-11-11T03:54:51;7.27;;;5.03;;
12267;SDS011;6196;48.398;11.736;2022-11-11T03:57:18;8.33;;;5.20;;
12267;SDS011;6196;48.398;11.736;2022-11-11T04:00:03;5.13;;;4.63;;
12267;SDS011;6196;48.398;11.736;2022-11-11T04:02:39;5.43;;;4.93;;
12267;SDS011;6196;48.398;11.736;2022-11-11T04:05:24;5.60;;;4.30;;
12267;SDS011;6196;48.398;11.736;2022-11-11T04:08:11;9.37;;;4.33;;
12267;SDS011;6196;48.398;11.736;2022-11-11T04:10:59;12.63;;;4.90;;
12267;SDS011;6196;48.398;11.736;2022-11-11T04:13:32;9.80;;;4.20;;
12267;SDS011;6196;48.398;11.736;2022-11-11T04:16:17;7.00;;;4.53;;
12267;SDS011;6196;48.398;11.736;2022-11-11T04:18:44;7.40;;;5.00;;
12267;SDS011;6196;48.398;11.736;2022-11-11T04:21:30;19.77;;;5.47;;
12267;SDS011;6196;48.398;11.736;2022-11-11T04:24:16;11.33;;;5.50;;
12267;SDS011;6196;48.398;11.736;2022-11-11T04:27:05;13.80;;;6.93;;
12267;SDS011;6196;48.398;11.736;2022-11-11T04:29:37;7.10;;;5.40;;
12267;SDS011;6196;48.398;11.736;2022-11-11T04:32:05;7.70;;;5.43;;
12267;SDS011;6196;48.398;11.736;2022-11-11T04:34:59;9.17;;;5.40;;
12267;SDS011;6196;48.398;11.736;2022-11-11T04:37:35;20.97;;;6.70;;
12267;SDS011;6196;48.398;11.736;2022-11-11T04:40:12;8.73;;;6.27;;
12267;SDS011;6196;48.398;11.736;2022-11-11T04:42:57;9.67;;;6.03;;
12267;SDS011;6196;48.398;11.736;2022-11-11T04:45:24;15.63;;;6.50;;
12267;SDS011;6196;48.398;11.736;2022-11-11T04:50:36;10.77;;;5.87;;
12267;SDS011;6196;48.398;11.736;2022-11-11T04:53:10;9.97;;;5.83;;
12267;SDS011;6196;48.398;11.736;2022-11-11T04:55:39;7.63;;;6.13;;
12267;SDS011;6196;48.398;11.736;2022-11-11T04:58:29;7.60;;;6.00;;
12267;SDS011;6196;48.398;11.736;2022-11-11T05:00:59;8.07;;;5.73;;
12267;SDS011;6196;48.398;11.736;2022-11-11T05:03:27;9.37;;;6.37;;
12267;SDS011;6196;48.398;11.736;2022-11-11T05:05:54;9.03;;;7.30;;
12267;SDS011;6196;48.398;11.736;2022-11-11T05:08:43;11.27;;;6.03;;
12267;SDS011;6196;48.398;11.736;2022-11-11T05:13:55;21.73;;;6.20;;
12267;SDS011;6196;48.398;11.736;2022-11-11T05:16:47;7.57;;;6.17;;
12267;SDS011;6196;48.398;11.736;2022-11-11T05:19:34;11.43;;;5.93;;
12267;SDS011;6196;48.398;11.736;2022-11-11T05:22:22;8.30;;;5.93;;
12267;SDS011;6196;48.398;11.736;2022-11-11T05:25:05;9.37;;;6.23;;
12267;SDS011;6196;48.398;11.736;2022-11-11T05:27:52;6.07;;;5.27;;
12267;SDS011;6196;48.398;11.736;2022-11-11T05:30:20;5.93;;;5.43;;
12267;SDS011;6196;48.398;11.736;2022-11-11T05:32:48;6.20;;;5.60;;
12267;SDS011;6196;48.398;11.736;2022-11-11T05:35:16;7.73;;;5.30;;
12267;SDS011;6196;48.398;11.736;2022-11-11T05:37:43;5.03;;;4.53;;
12267;SDS011;6196;48.398;11.736;2022-11-11T05:40:30;7.03;;;4.73;;
12267;SDS011;6196;48.398;11.736;2022-11-11T05:42:57;4.93;;;4.43;;
12267;SDS011;6196;48.398;11.736;2022-11-11T05:45:24;5.53;;;4.20;;
12267;SDS011;6196;48.398;11.736;2022-11-11T05:47:51;5.57;;;4.70;;
12267;SDS011;6196;48.398;11.736;2022-11-11T05:50:18;5.67;;;5.07;;
12267;SDS011;6196;48.398;11.736;2022-11-11T05:52:48;6.93;;;5.00;;
12267;SDS011;6196;48.398;11.736;2022-11-11T05:55:15;6.97;;;5.90;;
12267;SDS011;6196;48.398;11.736;2022-11-11T05:57:42;8.40;;;5.63;;
12267;SDS011;6196;48.398;11.736;2022-11-11T06:00:10;6.73;;;5.50;;
12267;SDS011;6196;48.398;11.736;2022-11-11T06:02:37;8.27;;;5.70;;
12267;SDS011;6196;48.398;11.736;2022-11-11T06:05:04;8.00;;;6.00;;
12267;SDS011;6196;48.398;11.736;2022-11-11T06:07:36;9.60;;;6.37;;
12267;SDS011;6196;48.398;11.736;2022-11-11T06:10:04;6.60;;;5.90;;
12267;SDS011;6196;48.398;11.736;2022-11-11T06:12:51;8.80;;;6.17;;
12267;SDS011;6196;48.398;11.736;2022-11-11T06:15:31;8.20;;;6.00;;
12267;SDS011;6196;48.398;11.736;2022-11-11T06:17:59;8.00;;;6.57;;
12267;SDS011;6196;48.398;11.736;2022-11-11T06:20:27;9.53;;;6.37;;
12267;SDS011;6196;48.398;11.736;2022-11-11T06:22:54;7.60;;;6.30;;
12267;SDS011;6196;48.398;11.736;2022-11-11T06:25:22;10.67;;;7.10;;
12267;SDS011;6196;48.398;11.736;2022-11-11T06:28:09;10.03;;;7.60;;
12267;SDS011;6196;48.398;11.736;2022-11-11T06:30:37;9.37;;;7.33;;
12267;SDS011;6196;48.398;11.736;2022-11-11T06:33:16;8.90;;;6.90;;
12267;SDS011;6196;48.398;11.736;2022-11-11T06:35:43;9.20;;;7.47;;
12267;SDS011;6196;48.398;11.736;2022-11-11T06:38:10;10.70;;;7.47;;
12267;SDS011;6196;48.398;11.736;2022-11-11T06:40:37;9.03;;;6.77;;
12267;SDS011;6196;48.398;11.736;2022-11-11T06:43:04;9.57;;;7.53;;
12267;SDS011;6196;48.398;11.736;2022-11-11T06:45:31;9.10;;;8.00;;
12267;SDS011;6196;48.398;11.736;2022-11-11T06:48:00;9.83;;;8.03;;
12267;SDS011;6196;48.398;11.736;2022-11-11T06:50:28;9.43;;;7.43;;
12267;SDS011;6196;48.398;11.736;2022-11-11T06:52:55;12.47;;;8.00;;
12267;SDS011;6196;48.398;11.736;2022-11-11T06:55:29;14.70;;;9.90;;
12267;SDS011;6196;48.398;11.736;2022-11-11T06:58:03;11.70;;;8.40;;
12267;SDS011;6196;48.398;11.736;2022-11-11T07:00:31;14.47;;;8.37;;
12267;SDS011;6196;48.398;11.736;2022-11-11T07:02:59;15.67;;;7.43;;
12267;SDS011;6196;48.398;11.736;2022-11-11T07:05:27;10.00;;;5.60;;
12267;SDS011;6196;48.398;11.736;2022-11-11T07:07:53;9.83;;;6.07;;
12267;SDS011;6196;48.398;11.736;2022-11-11T07:10:21;11.87;;;6.63;;
12267;SDS011;6196;48.398;11.736;2022-11-11T07:12:48;12.07;;;6.47;;
12267;SDS011;6196;48.398;11.736;2022-11-11T07:15:14;10.57;;;6.50;;
12267;SDS011;6196;48.398;11.736;2022-11-11T07:17:41;11.07;;;6.83;;
12267;SDS011;6196;48.398;11.736;2022-11-11T07:20:08;38.13;;;7.63;;
12267;SDS011;6196;48.398;11.736;2022-11-11T07:22:36;8.97;;;6.37;;
12267;SDS011;6196;48.398;11.736;2022-11-11T07:25:03;25.53;;;6.60;;
12267;SDS011;6196;48.398;11.736;2022-11-11T07:27:31;7.53;;;6.07;;
12267;SDS011;6196;48.398;11.736;2022-11-11T07:30:02;17.83;;;6.03;;
12267;SDS011;6196;48.398;11.736;2022-11-11T07:32:30;15.43;;;5.77;;
12267;SDS011;6196;48.398;11.736;2022-11-11T07:34:57;19.83;;;5.67;;
12267;SDS011;6196;48.398;11.736;2022-11-11T07:37:24;39.40;;;6.93;;
12267;SDS011;6196;48.398;11.736;2022-11-11T07:39:51;45.20;;;6.77;;
12267;SDS011;6196;48.398;11.736;2022-11-11T07:42:18;14.50;;;5.13;;
12267;SDS011;6196;48.398;11.736;2022-11-11T07:44:56;13.30;;;5.07;;
12267;SDS011;6196;48.398;11.736;2022-11-11T07:47:23;23.50;;;5.77;;
12267;SDS011;6196;48.398;11.736;2022-11-11T07:49:50;66.77;;;8.07;;
12267;SDS011;6196;48.398;11.736;2022-11-11T07:52:17;71.50;;;8.90;;
12267;SDS011;6196;48.398;11.736;2022-11-11T07:54:44;51.73;;;7.53;;
12267;SDS011;6196;48.398;11.736;2022-11-11T07:57:10;28.07;;;5.97;;
12267;SDS011;6196;48.398;11.736;2022-11-11T07:59:37;18.30;;;5.83;;
12267;SDS011;6196;48.398;11.736;2022-11-11T08:02:04;24.67;;;6.60;;
12267;SDS011;6196;48.398;11.736;2022-11-11T08:04:31;17.10;;;6.20;;
12267;SDS011;6196;48.398;11.736;2022-11-11T08:06:58;46.53;;;7.47;;
12267;SDS011;6196;48.398;11.736;2022-11-11T08:09:25;53.80;;;7.03;;
12267;SDS011;6196;48.398;11.736;2022-11-11T08:11:52;55.40;;;7.30;;
12267;SDS011;6196;48.398;11.736;2022-11-11T08:14:40;7.67;;;5.63;;
12267;SDS011;6196;48.398;11.736;2022-11-11T08:17:07;120.50;;;9.80;;
12267;SDS011;6196;48.398;11.736;2022-11-11T08:19:34;224.93;;;17.60;;
12267;SDS011;6196;48.398;11.736;2022-11-11T08:22:01;86.17;;;9.37;;
12267;SDS011;6196;48.398;11.736;2022-11-11T08:24:29;32.77;;;8.60;;
12267;SDS011;6196;48.398;11.736;2022-11-11T08:27:16;18.83;;;7.40;;
12267;SDS011;6196;48.398;11.736;2022-11-11T08:29:43;28.63;;;8.33;;
12267;SDS011;6196;48.398;11.736;2022-11-11T08:32:09;10.43;;;7.87;;
12267;SDS011;6196;48.398;11.736;2022-11-11T08:34:36;10.37;;;8.33;;
12267;SDS011;6196;48.398;11.736;2022-11-11T08:37:03;9.77;;;8.33;;
12267;SDS011;6196;48.398;11.736;2022-11-11T08:39:30;9.50;;;8.03;;
12267;SDS011;6196;48.398;11.736;2022-11-11T08:41:57;9.43;;;7.87;;
12267;SDS011;6196;48.398;11.736;2022-11-11T08:44:24;9.77;;;7.47;;
12267;SDS011;6196;48.398;11.736;2022-11-11T08:46:50;8.40;;;7.47;;
12267;SDS011;6196;48.398;11.736;2022-11-11T08:49:17;10.07;;;8.33;;
12267;SDS011;6196;48.398;11.736;2022-11-11T08:51:44;8.20;;;6.53;;
12267;SDS011;6196;48.398;11.736;2022-11-11T08:54:11;7.30;;;6.50;;
12267;SDS011;6196;48.398;11.736;2022-11-11T08:56:38;6.30;;;5.70;;
12267;SDS011;6196;48.398;11.736;2022-11-11T08:59:05;6.50;;;5.77;;
12267;SDS011;6196;48.398;11.736;2022-11-11T09:01:33;12.37;;;9.30;;
12267;SDS011;6196;48.398;11.736;2022-11-11T09:04:00;6.83;;;6.13;;
12267;SDS011;6196;48.398;11.736;2022-11-11T09:06:47;26.60;;;15.40;;
12267;SDS011;6196;48.398;11.736;2022-11-11T09:09:13;18.67;;;11.80;;
12267;SDS011;6196;48.398;11.736;2022-11-11T09:11:40;8.03;;;6.40;;
12267;SDS011;6196;48.398;11.736;2022-11-11T09:14:07;7.63;;;6.47;;
12267;SDS011;6196;48.398;11.736;2022-11-11T09:16:34;5.80;;;5.20;;
12267;SDS011;6196;48.398;11.736;2022-11-11T09:19:01;5.17;;;4.67;;
12267;SDS011;6196;48.398;11.736;2022-11-11T09:21:28;6.13;;;5.43;;
12267;SDS011;6196;48.398;11.736;2022-11-11T09:23:54;6.50;;;5.33;;
12267;SDS011;6196;48.398;11.736;2022-11-11T09:26:21;5.40;;;4.80;;
12267;SDS011;6196;48.398;11.736;2022-11-11T09:28:48;5.27;;;4.77;;
12267;SDS011;6196;48.398;11.736;2022-11-11T09:31:15;5.00;;;4.50;;
12267;SDS011;6196;48.398;11.736;2022-11-11T09:34:02;4.83;;;4.37;;
12267;SDS011;6196;48.398;11.736;2022-11-11T09:36:29;6.10;;;5.50;;
12267;SDS011;6196;48.398;11.736;2022-11-11T09:38:56;10.27;;;8.87;;
12267;SDS011;6196;48.398;11.736;2022-11-11T09:41:26;10.33;;;8.57;;
12267;SDS011;6196;48.398;11.736;2022-11-11T09:44:37;5.90;;;5.30;;
12267;SDS011;6196;48.398;11.736;2022-11-11T09:50:36;4.63;;;3.87;;
12267;SDS011;6196;48.398;11.736;2022-11-11T09:55:51;4.70;;;4.00;;
12267;SDS011;6196;48.398;11.736;2022-11-11T09:58:33;4.50;;;4.10;;
12267;SDS011;6196;48.398;11.736;2022-11-11T10:01:12;3.87;;;3.53;;
12267;SDS011;6196;48.398;11.736;2022-11-11T10:03:53;4.30;;;3.93;;
12267;SDS011;6196;48.398;11.736;2022-11-11T10:06:44;3.83;;;3.43;;
12267;SDS011;6196;48.398;11.736;2022-11-11T10:09:24;3.70;;;3.33;;
12267;SDS011;6196;48.398;11.736;2022-11-11T10:12:11;3.67;;;3.00;;
12267;SDS011;6196;48.398;11.736;2022-11-11T10:14:41;3.50;;;3.20;;
12267;SDS011;6196;48.398;11.736;2022-11-11T10:20:02;3.43;;;3.13;;
12267;SDS011;6196;48.398;11.736;2022-11-11T10:22:42;3.20;;;2.90;;
12267;SDS011;6196;48.398;11.736;2022-11-11T10:27:42;3.57;;;2.77;;
12267;SDS011;6196;48.398;11.736;2022-11-11T10:32:55;3.47;;;2.83;;
12267;SDS011;6196;48.398;11.736;2022-11-11T10:35:35;3.27;;;2.97;;
12267;SDS011;6196;48.398;11.736;2022-11-11T10:40:38;3.23;;;2.90;;
12267;SDS011;6196;48.398;11.736;2022-11-11T10:43:24;4.73;;;3.33;;
12267;SDS011;6196;48.398;11.736;2022-11-11T10:48:40;4.47;;;3.33;;
12267;SDS011;6196;48.398;11.736;2022-11-11T10:51:34;3.90;;;3.50;;
12267;SDS011;6196;48.398;11.736;2022-11-11T11:07:49;5.87;;;3.83;;
12267;SDS011;6196;48.398;11.736;2022-11-11T11:10:21;6.00;;;4.10;;
12267;SDS011;6196;48.398;11.736;2022-11-11T11:13:02;4.00;;;3.47;;
12267;SDS011;6196;48.398;11.736;2022-11-11T11:15:38;4.13;;;3.40;;
12267;SDS011;6196;48.398;11.736;2022-11-11T11:18:10;4.97;;;3.20;;
12267;SDS011;6196;48.398;11.736;2022-11-11T11:23:43;4.47;;;4.07;;
12267;SDS011;6196;48.398;11.736;2022-11-11T11:26:12;5.80;;;4.20;;
12267;SDS011;6196;48.398;11.736;2022-11-11T11:31:37;3.90;;;3.60;;
12267;SDS011;6196;48.398;11.736;2022-11-11T11:34:06;4.87;;;3.90;;
12267;SDS011;6196;48.398;11.736;2022-11-11T11:36:33;4.17;;;3.77;;
12267;SDS011;6196;48.398;11.736;2022-11-11T11:39:00;5.20;;;4.70;;
12267;SDS011;6196;48.398;11.736;2022-11-11T11:41:43;5.07;;;4.40;;
12267;SDS011;6196;48.398;11.736;2022-11-11T11:44:32;6.03;;;4.17;;
12267;SDS011;6196;48.398;11.736;2022-11-11T11:55:45;6.73;;;4.80;;
12267;SDS011;6196;48.398;11.736;2022-11-11T11:58:34;5.70;;;5.20;;
12267;SDS011;6196;48.398;11.736;2022-11-11T12:16:49;5.57;;;5.07;;
12267;SDS011;6196;48.398;11.736;2022-11-11T12:31:38;6.60;;;5.30;;
12267;SDS011;6196;48.398;11.736;2022-11-11T12:36:59;5.40;;;4.87;;
12267;SDS011;6196;48.398;11.736;2022-11-11T12:45:44;4.90;;;4.10;;
12267;SDS011;6196;48.398;11.736;2022-11-11T13:00:09;4.07;;;3.63;;
12267;SDS011;6196;48.398;11.736;2022-11-11T13:06:19;3.30;;;3.00;;
12267;SDS011;6196;48.398;11.736;2022-11-11T13:15:24;3.90;;;3.47;;
12267;SDS011;6196;48.398;11.736;2022-11-11T13:17:52;3.33;;;3.13;;
12267;SDS011;6196;48.398;11.736;2022-11-11T13:20:23;4.70;;;3.67;;
12267;SDS011;6196;48.398;11.736;2022-11-11T13:23:09;3.50;;;3.20;;
12267;SDS011;6196;48.398;11.736;2022-11-11T13:25:39;3.73;;;3.33;;
12267;SDS011;6196;48.398;11.736;2022-11-11T13:31:15;3.20;;;2.90;;
12267;SDS011;6196;48.398;11.736;2022-11-11T13:33:57;3.30;;;2.90;;
12267;SDS011;6196;48.398;11.736;2022-11-11T13:36:46;4.10;;;3.20;;
12267;SDS011;6196;48.398;11.736;2022-11-11T13:39:27;3.40;;;3.07;;
12267;SDS011;6196;48.398;11.736;2022-11-11T13:41:59;4.63;;;3.37;;
12267;SDS011;6196;48.398;11.736;2022-11-11T13:44:32;4.30;;;3.80;;
12267;SDS011;6196;48.398;11.736;2022-11-11T13:47:14;4.07;;;3.70;;
12267;SDS011;6196;48.398;11.736;2022-11-11T13:49:51;3.97;;;3.67;;
12267;SDS011;6196;48.398;11.736;2022-11-11T13:55:01;3.73;;;3.23;;
12267;SDS011;6196;48.398;11.736;2022-11-11T13:57:33;3.30;;;3.00;;
12267;SDS011;6196;48.398;11.736;2022-11-11T14:02:43;3.60;;;3.20;;
12267;SDS011;6196;48.398;11.736;2022-11-11T14:05:15;4.60;;;3.03;;
12267;SDS011;6196;48.398;11.736;2022-11-11T14:12:45;4.37;;;2.90;;
12267;SDS011;6196;48.398;11.736;2022-11-11T14:20:47;2.80;;;2.60;;
12267;SDS011;6196;48.398;11.736;2022-11-11T14:25:49;2.40;;;2.17;;
12267;SDS011;6196;48.398;11.736;2022-11-11T14:28:53;2.60;;;2.40;;
12267;SDS011;6196;48.398;11.736;2022-11-11T14:37:29;4.07;;;2.70;;
12267;SDS011;6196;48.398;11.736;2022-11-11T14:40:23;3.10;;;2.53;;
12267;SDS011;6196;48.398;11.736;2022-11-11T14:42:55;3.27;;;2.30;;
12267;SDS011;6196;48.398;11.736;2022-11-11T14:47:57;2.50;;;2.30;;
12267;SDS011;6196;48.398;11.736;2022-11-11T14:53:00;2.67;;;2.47;;
12267;SDS011;6196;48.398;11.736;2022-11-11T14:55:50;3.10;;;2.10;;
12267;SDS011;6196;48.398;11.736;2022-11-11T14:58:20;3.57;;;2.30;;
12267;SDS011;6196;48.398;11.736;2022-11-11T15:00:58;3.10;;;2.67;;
12267;SDS011;6196;48.398;11.736;2022-11-11T15:03:36;3.00;;;2.70;;
12267;SDS011;6196;48.398;11.736;2022-11-11T15:12:12;4.03;;;3.53;;
12267;SDS011;6196;48.398;11.736;2022-11-11T15:15:10;3.60;;;3.30;;
12267;SDS011;6196;48.398;11.736;2022-11-11T15:18:42;3.77;;;3.47;;
12267;SDS011;6196;48.398;11.736;2022-11-11T15:21:35;4.50;;;3.90;;
12267;SDS011;6196;48.398;11.736;2022-11-11T15:24:32;4.37;;;3.80;;
12267;SDS011;6196;48.398;11.736;2022-11-11T15:27:23;4.30;;;4.00;;
12267;SDS011;6196;48.398;11.736;2022-11-11T15:30:22;4.60;;;4.20;;
12267;SDS011;6196;48.398;11.736;2022-11-11T15:36:15;4.33;;;4.03;;
12267;SDS011;6196;48.398;11.736;2022-11-11T15:38:56;4.90;;;4.30;;
12267;SDS011;6196;48.398;11.736;2022-11-11T15:41:37;5.00;;;4.20;;
12267;SDS011;6196;48.398;11.736;2022-11-11T15:44:10;13.83;;;7.90;;
12267;SDS011;6196;48.398;11.736;2022-11-11T15:46:53;19.57;;;14.70;;
12267;SDS011;6196;48.398;11.736;2022-11-11T15:52:23;14.70;;;9.00;;
12267;SDS011;6196;48.398;11.736;2022-11-11T15:54:59;14.70;;;8.77;;
12267;SDS011;6196;48.398;11.736;2022-11-11T15:57:43;15.10;;;8.67;;
12267;SDS011;6196;48.398;11.736;2022-11-11T16:02:50;12.43;;;9.93;;
12267;SDS011;6196;48.398;11.736;2022-11-11T16:05:24;9.73;;;8.40;;
12267;SDS011;6196;48.398;11.736;2022-11-11T16:07:54;9.60;;;8.43;;
12267;SDS011;6196;48.398;11.736;2022-11-11T16:10:34;9.20;;;8.10;;
12267;SDS011;6196;48.398;11.736;2022-11-11T16:18:21;40.87;;;36.47;;
12267;SDS011;6196;48.398;11.736;2022-11-11T16:20:54;22.83;;;19.60;;
12267;SDS011;6196;48.398;11.736;2022-11-11T16:23:30;7.20;;;6.50;;
12267;SDS011;6196;48.398;11.736;2022-11-11T16:25:58;8.93;;;8.03;;
12267;SDS011;6196;48.398;11.736;2022-11-11T16:28:26;14.47;;;12.13;;
12267;SDS011;6196;48.398;11.736;2022-11-11T16:37:04;31.27;;;17.17;;
12267;SDS011;6196;48.398;11.736;2022-11-11T16:39:41;12.00;;;8.10;;
12267;SDS011;6196;48.398;11.736;2022-11-11T16:42:23;5.07;;;4.67;;
12267;SDS011;6196;48.398;11.736;2022-11-11T16:52:50;5.87;;;4.87;;
12267;SDS011;6196;48.398;11.736;2022-11-11T17:00:39;5.83;;;4.83;;
12267;SDS011;6196;48.398;11.736;2022-11-11T17:03:09;5.50;;;5.00;;
12267;SDS011;6196;48.398;11.736;2022-11-11T17:05:56;5.63;;;5.13;;
12267;SDS011;6196;48.398;11.736;2022-11-11T17:08:36;6.03;;;5.47;;
12267;SDS011;6196;48.398;11.736;2022-11-11T17:11:40;5.60;;;5.10;;
12267;SDS011;6196;48.398;11.736;2022-11-11T17:14:03;5.40;;;4.90;;
12267;SDS011;6196;48.398;11.736;2022-11-11T17:16:30;6.17;;;5.17;;
12267;SDS011;6196;48.398;11.736;2022-11-11T17:19:00;5.20;;;4.80;;
12267;SDS011;6196;48.398;11.736;2022-11-11T17:21:28;5.33;;;4.90;;
12267;SDS011;6196;48.398;11.736;2022-11-11T17:23:55;4.90;;;4.40;;
12267;SDS011;6196;48.398;11.736;2022-11-11T17:26:22;6.27;;;5.07;;
12267;SDS011;6196;48.398;11.736;2022-11-11T17:28:49;4.83;;;4.43;;
12267;SDS011;6196;48.398;11.736;2022-11-11T17:31:16;5.47;;;4.97;;
12267;SDS011;6196;48.398;11.736;2022-11-11T17:33:42;5.43;;;4.93;;
12267;SDS011;6196;48.398;11.736;2022-11-11T17:36:09;4.70;;;4.30;;
12267;SDS011;6196;48.398;11.736;2022-11-11T17:38:36;5.47;;;4.97;;
12267;SDS011;6196;48.398;11.736;2022-11-11T17:41:03;5.87;;;5.37;;
12267;SDS011;6196;48.398;11.736;2022-11-11T17:43:31;6.13;;;5.57;;
12267;SDS011;6196;48.398;11.736;2022-11-11T17:46:01;6.40;;;5.53;;
12267;SDS011;6196;48.398;11.736;2022-11-11T17:48:29;7.60;;;5.70;;
12267;SDS011;6196;48.398;11.736;2022-11-11T17:50:56;6.10;;;5.50;;
12267;SDS011;6196;48.398;11.736;2022-11-11T17:53:23;7.20;;;6.23;;
12267;SDS011;6196;48.398;11.736;2022-11-11T17:55:51;7.00;;;6.40;;
12267;SDS011;6196;48.398;11.736;2022-11-11T17:58:18;8.10;;;7.30;;
12267;SDS011;6196;48.398;11.736;2022-11-11T18:00:45;7.67;;;6.93;;
12267;SDS011;6196;48.398;11.736;2022-11-11T18:03:11;9.50;;;7.20;;
12267;SDS011;6196;48.398;11.736;2022-11-11T18:05:38;8.93;;;8.03;;
12267;SDS011;6196;48.398;11.736;2022-11-11T18:08:05;7.60;;;6.90;;
12267;SDS011;6196;48.398;11.736;2022-11-11T18:10:32;6.17;;;5.57;;
12267;SDS011;6196;48.398;11.736;2022-11-11T18:12:59;6.50;;;5.80;;
12267;SDS011;6196;48.398;11.736;2022-11-11T18:15:26;6.60;;;5.90;;
12267;SDS011;6196;48.398;11.736;2022-11-11T18:17:52;7.10;;;6.40;;
12267;SDS011;6196;48.398;11.736;2022-11-11T18:20:19;7.87;;;5.80;;
12267;SDS011;6196;48.398;11.736;2022-11-11T18:22:46;7.23;;;6.53;;
12267;SDS011;6196;48.398;11.736;2022-11-11T18:25:13;7.77;;;5.83;;
12267;SDS011;6196;48.398;11.736;2022-11-11T18:27:40;7.17;;;6.47;;
12267;SDS011;6196;48.398;11.736;2022-11-11T18:30:07;7.37;;;6.70;;
12267;SDS011;6196;48.398;11.736;2022-11-11T18:32:34;8.77;;;7.87;;
12267;SDS011;6196;48.398;11.736;2022-11-11T18:35:01;8.60;;;7.80;;
12267;SDS011;6196;48.398;11.736;2022-11-11T18:37:28;9.43;;;8.50;;
12267;SDS011;6196;48.398;11.736;2022-11-11T18:39:55;7.70;;;7.00;;